createdAt,value
2022-08-30T00:02:26.460Z,99.90
2022-08-30T00:04:55.383Z,99.90
2022-08-30T00:07:24.075Z,99.90
2022-08-30T00:09:52.323Z,99.90
2022-08-30T00:12:22.437Z,99.90
2022-08-30T00:14:51.263Z,99.90
2022-08-30T00:17:20.142Z,99.90
2022-08-30T00:19:48.342Z,99.90
2022-08-30T00:22:16.574Z,99.90
2022-08-30T00:24:44.766Z,99.90
2022-08-30T00:27:13.239Z,99.90
2022-08-30T00:29:43.039Z,99.90
2022-08-30T00:32:11.330Z,99.90
2022-08-30T00:34:39.649Z,99.90
2022-08-30T00:37:07.900Z,99.90
2022-08-30T00:39:36.102Z,99.90
2022-08-30T00:42:04.492Z,99.90
2022-08-30T00:44:32.856Z,99.90
2022-08-30T00:47:02.625Z,99.90
2022-08-30T00:49:32.453Z,99.90
2022-08-30T00:52:01.755Z,99.90
2022-08-30T00:54:32.158Z,99.90
2022-08-30T00:57:01.092Z,99.90
2022-08-30T00:59:30.256Z,99.90
2022-08-30T01:01:59.339Z,99.90
2022-08-30T01:04:29.516Z,99.90
2022-08-30T01:06:58.387Z,99.90
2022-08-30T01:09:26.660Z,99.90
2022-08-30T01:11:55.996Z,99.90
2022-08-30T01:14:25.848Z,99.90
2022-08-30T01:16:57.855Z,99.90
2022-08-30T01:19:37.375Z,99.90
2022-08-30T01:22:11.624Z,99.90
2022-08-30T01:24:41.598Z,99.90
2022-08-30T01:27:09.888Z,99.90
2022-08-30T01:29:38.283Z,99.90
2022-08-30T01:32:07.326Z,99.90
2022-08-30T01:34:35.564Z,99.90
2022-08-30T01:37:03.732Z,99.90
2022-08-30T01:39:33.093Z,99.90
2022-08-30T01:42:03.657Z,99.90
2022-08-30T01:44:31.832Z,99.90
2022-08-30T01:47:00.124Z,99.90
2022-08-30T01:49:28.580Z,99.90
2022-08-30T01:52:01.042Z,99.90
2022-08-30T01:54:36.999Z,99.90
2022-08-30T01:57:08.924Z,99.90
2022-08-30T01:59:37.876Z,99.90
2022-08-30T02:02:07.075Z,99.90
2022-08-30T02:04:36.891Z,99.90
2022-08-30T02:07:05.583Z,99.90
2022-08-30T02:09:34.159Z,99.90
2022-08-30T02:12:02.502Z,99.90
2022-08-30T02:14:32.196Z,99.90
2022-08-30T02:17:00.359Z,99.90
2022-08-30T02:19:28.665Z,99.90
2022-08-30T02:21:57.011Z,99.90
2022-08-30T02:24:25.344Z,99.90
2022-08-30T02:26:54.274Z,99.90
2022-08-30T02:29:24.089Z,99.90
2022-08-30T02:31:53.708Z,99.90
2022-08-30T02:34:23.210Z,99.90
2022-08-30T02:36:51.543Z,99.90
2022-08-30T02:39:19.861Z,99.90
2022-08-30T02:41:48.199Z,99.90
2022-08-30T02:44:16.493Z,99.90
2022-08-30T02:46:45.555Z,99.90
2022-08-30T02:49:33.566Z,99.90
2022-08-30T02:52:02.421Z,99.90
2022-08-30T02:54:33.343Z,99.90
2022-08-30T02:57:04.893Z,99.90
2022-08-30T02:59:34.140Z,99.90
2022-08-30T03:02:02.401Z,99.90
2022-08-30T03:04:32.124Z,99.90
2022-08-30T03:07:00.336Z,99.90
2022-08-30T03:09:28.681Z,99.90
2022-08-30T03:11:56.922Z,99.90
2022-08-30T03:14:25.591Z,99.90
2022-08-30T03:16:53.893Z,99.90
2022-08-30T03:19:22.351Z,99.90
2022-08-30T03:21:52.236Z,99.90
2022-08-30T03:24:20.629Z,99.90
2022-08-30T03:26:48.934Z,99.90
2022-08-30T03:29:17.141Z,99.90
2022-08-30T03:31:52.573Z,99.90
2022-08-30T03:34:22.597Z,99.90
2022-08-30T03:36:55.780Z,99.90
2022-08-30T03:39:25.090Z,99.90
2022-08-30T03:41:53.863Z,99.90
2022-08-30T03:44:22.177Z,99.90
2022-08-30T03:46:50.540Z,99.90
2022-08-30T03:49:19.081Z,99.90
2022-08-30T03:51:47.495Z,99.90
2022-08-30T03:54:17.617Z,99.90
2022-08-30T03:56:46.022Z,99.90
2022-08-30T03:59:14.275Z,99.90
2022-08-30T04:01:43.124Z,99.90
2022-08-30T04:04:12.197Z,99.90
2022-08-30T04:06:40.537Z,99.90
2022-08-30T04:09:08.853Z,99.90
2022-08-30T04:11:38.643Z,99.90
2022-08-30T04:14:06.865Z,99.90
2022-08-30T04:16:35.198Z,99.90
2022-08-30T04:19:03.544Z,99.90
2022-08-30T04:21:47.857Z,99.90
2022-08-30T04:24:16.175Z,99.90
2022-08-30T04:26:45.902Z,99.90
2022-08-30T04:29:16.712Z,99.90
2022-08-30T04:31:45.673Z,99.90
2022-08-30T04:34:14.905Z,99.90
2022-08-30T04:36:48.315Z,99.90
2022-08-30T04:39:16.698Z,99.90
2022-08-30T04:41:46.420Z,99.90
2022-08-30T04:44:19.410Z,99.90
2022-08-30T04:46:48.085Z,99.90
2022-08-30T04:49:16.620Z,99.90
2022-08-30T04:51:44.922Z,99.90
2022-08-30T04:54:13.425Z,99.90
2022-08-30T04:56:41.613Z,99.90
2022-08-30T04:59:11.229Z,99.90
2022-08-30T05:01:45.527Z,99.90
2022-08-30T05:04:14.758Z,99.90
2022-08-30T05:06:43.208Z,99.90
2022-08-30T05:09:11.542Z,99.90
2022-08-30T05:11:39.938Z,99.90
2022-08-30T05:14:08.220Z,99.90
2022-08-30T05:16:37.922Z,99.90
2022-08-30T05:19:07.997Z,99.90
2022-08-30T05:21:36.272Z,99.90
2022-08-30T05:24:04.824Z,99.90
2022-08-30T05:26:35.198Z,99.90
2022-08-30T05:29:03.944Z,99.90
2022-08-30T05:31:34.875Z,99.90
2022-08-30T05:34:05.717Z,99.90
2022-08-30T05:36:37.363Z,99.90
2022-08-30T05:39:15.268Z,99.90
2022-08-30T05:41:47.893Z,99.90
2022-08-30T05:44:21.022Z,99.90
2022-08-30T05:46:51.137Z,99.90
2022-08-30T05:49:20.803Z,99.90
2022-08-30T05:51:48.992Z,99.90
2022-08-30T05:54:17.680Z,99.90
2022-08-30T05:56:47.248Z,99.90
2022-08-30T05:59:16.442Z,99.90
2022-08-30T06:01:46.441Z,99.90
2022-08-30T06:04:15.415Z,99.90
2022-08-30T06:06:46.307Z,99.90
2022-08-30T06:09:16.212Z,99.90
2022-08-30T06:11:45.156Z,99.90
2022-08-30T06:14:13.639Z,99.90
2022-08-30T06:16:45.752Z,99.90
2022-08-30T06:19:15.427Z,99.90
2022-08-30T06:21:48.944Z,99.90
2022-08-30T06:24:17.571Z,99.90
2022-08-30T06:26:48.192Z,99.90
2022-08-30T06:29:22.413Z,99.90
2022-08-30T06:31:51.006Z,99.90
2022-08-30T06:34:19.693Z,99.90
2022-08-30T06:36:49.388Z,99.90
2022-08-30T06:39:17.856Z,99.90
2022-08-30T06:41:46.072Z,99.90
2022-08-30T06:44:14.302Z,99.90
2022-08-30T06:46:42.636Z,99.90
2022-08-30T06:49:10.953Z,99.90
2022-08-30T06:51:42.041Z,99.90
2022-08-30T06:54:12.406Z,99.90
2022-08-30T06:56:55.203Z,99.90
2022-08-30T06:59:26.037Z,99.90
2022-08-30T07:01:55.518Z,99.90
2022-08-30T07:04:23.888Z,99.90
2022-08-30T07:06:52.486Z,99.90
2022-08-30T07:09:23.125Z,99.90
2022-08-30T07:11:52.269Z,99.90
2022-08-30T07:14:20.940Z,99.90
2022-08-30T07:16:51.157Z,99.90
2022-08-30T07:19:21.164Z,99.90
2022-08-30T07:21:50.797Z,99.90
2022-08-30T07:24:21.550Z,99.90
2022-08-30T07:26:52.401Z,99.90
2022-08-30T07:29:21.975Z,99.90
2022-08-30T07:31:50.753Z,99.90
2022-08-30T07:34:20.637Z,99.90
2022-08-30T07:36:50.718Z,99.90
2022-08-30T07:39:19.433Z,99.90
2022-08-30T07:41:50.860Z,99.90
2022-08-30T07:44:19.250Z,99.90
2022-08-30T07:46:51.594Z,99.90
2022-08-30T07:49:20.460Z,99.90
2022-08-30T07:51:49.053Z,99.90
2022-08-30T07:54:17.304Z,99.90
2022-08-30T07:56:45.521Z,99.90
2022-08-30T07:59:15.227Z,99.90
2022-08-30T08:01:43.520Z,99.90
2022-08-30T08:04:12.409Z,99.90
2022-08-30T08:06:41.293Z,99.90
2022-08-30T08:09:10.183Z,99.90
2022-08-30T08:11:39.914Z,99.90
2022-08-30T08:14:08.756Z,99.90
2022-08-30T08:16:39.543Z,99.90
2022-08-30T08:19:09.315Z,99.90
2022-08-30T08:21:38.143Z,99.90
2022-08-30T08:24:07.012Z,99.90
2022-08-30T08:26:36.919Z,99.90
2022-08-30T08:29:05.205Z,99.90
2022-08-30T08:31:33.979Z,99.90
2022-08-30T08:34:06.072Z,99.90
2022-08-30T08:36:36.109Z,99.90
2022-08-30T08:39:06.485Z,99.90
2022-08-30T08:41:47.565Z,98.90
2022-08-30T08:44:23.353Z,97.00
2022-08-30T08:46:58.257Z,95.80
2022-08-30T08:49:28.465Z,94.90
2022-08-30T08:52:14.439Z,93.50
2022-08-30T08:54:50.136Z,93.80
2022-08-30T08:57:21.418Z,90.30
2022-08-30T08:59:54.593Z,87.40
2022-08-30T09:02:26.470Z,85.40
2022-08-30T09:05:00.725Z,80.70
2022-08-30T09:07:33.447Z,80.00
2022-08-30T09:10:01.856Z,75.40
2022-08-30T09:12:30.625Z,76.50
2022-08-30T09:15:05.207Z,74.90
2022-08-30T09:17:51.831Z,71.40
2022-08-30T09:20:34.197Z,72.20
2022-08-30T09:23:22.213Z,72.00
2022-08-30T09:25:54.724Z,71.20
2022-08-30T09:28:25.783Z,71.30
2022-08-30T09:31:11.899Z,68.90
2022-08-30T09:33:40.617Z,67.70
2022-08-30T09:36:22.797Z,69.00
2022-08-30T09:39:00.733Z,68.70
2022-08-30T09:41:37.641Z,67.90
2022-08-30T09:44:09.949Z,67.10
2022-08-30T09:46:50.039Z,67.60
2022-08-30T09:49:34.333Z,66.60
2022-08-30T09:52:23.108Z,67.80
2022-08-30T09:55:05.278Z,66.40
2022-08-30T09:57:39.487Z,68.30
2022-08-30T10:00:11.761Z,65.10
2022-08-30T10:03:04.786Z,65.50
2022-08-30T10:05:39.537Z,66.60
2022-08-30T10:08:19.249Z,66.10
2022-08-30T10:10:52.524Z,64.30
2022-08-30T10:13:51.504Z,66.10
2022-08-30T10:16:31.860Z,66.10
2022-08-30T10:19:15.893Z,66.50
2022-08-30T10:21:52.157Z,65.20
2022-08-30T10:24:28.194Z,65.70
2022-08-30T10:27:05.390Z,64.60
2022-08-30T10:29:42.289Z,62.70
2022-08-30T10:32:17.931Z,66.10
2022-08-30T10:34:51.503Z,63.80
2022-08-30T10:37:24.825Z,65.00
2022-08-30T10:39:59.315Z,65.00
2022-08-30T10:42:34.623Z,66.90
2022-08-30T10:45:11.944Z,67.70
2022-08-30T10:47:46.484Z,65.80
2022-08-30T10:50:18.782Z,67.00
2022-08-30T10:52:55.653Z,65.80
2022-08-30T10:55:28.528Z,62.80
2022-08-30T10:58:01.276Z,61.40
2022-08-30T11:00:32.686Z,62.80
2022-08-30T11:03:37.220Z,63.70
2022-08-30T11:06:19.600Z,62.90
2022-08-30T11:09:03.871Z,62.40
2022-08-30T11:11:45.856Z,61.40
2022-08-30T11:14:18.045Z,62.80
2022-08-30T11:16:48.879Z,63.10
2022-08-30T11:19:22.084Z,64.50
2022-08-30T11:21:52.216Z,64.70
2022-08-30T11:24:23.120Z,64.70
2022-08-30T11:27:04.145Z,62.90
2022-08-30T11:29:44.531Z,60.20
2022-08-30T11:32:47.173Z,59.70
2022-08-30T11:35:37.429Z,60.30
2022-08-30T11:38:15.215Z,61.00
2022-08-30T11:40:53.378Z,60.90
2022-08-30T11:43:53.253Z,61.30
2022-08-30T11:46:36.294Z,57.50
2022-08-30T11:49:23.413Z,57.90
2022-08-30T11:52:27.505Z,59.20
2022-08-30T11:55:20.102Z,59.40
2022-08-30T11:57:54.682Z,58.00
2022-08-30T12:00:35.101Z,58.20
2022-08-30T12:03:06.303Z,58.40
2022-08-30T12:06:05.492Z,57.40
2022-08-30T12:08:59.537Z,59.30
2022-08-30T12:12:02.560Z,60.00
2022-08-30T12:14:52.080Z,57.10
2022-08-30T12:17:47.002Z,56.80
2022-08-30T12:20:23.496Z,57.00
2022-08-30T12:22:52.737Z,59.50
2022-08-30T12:25:26.527Z,60.20
2022-08-30T12:28:15.162Z,58.60
2022-08-30T12:30:46.586Z,60.20
2022-08-30T12:33:29.549Z,60.80
2022-08-30T12:35:59.727Z,60.90
2022-08-30T12:38:29.921Z,59.70
2022-08-30T12:41:01.783Z,58.90
2022-08-30T12:43:38.932Z,57.00
2022-08-30T12:46:12.451Z,59.10
2022-08-30T12:48:46.253Z,58.40
2022-08-30T12:51:30.923Z,59.90
2022-08-30T12:54:08.449Z,59.90
2022-08-30T12:59:59.466Z,57.90
2022-08-30T13:02:43.067Z,59.50
2022-08-30T13:05:35.164Z,58.30
2022-08-30T13:08:11.931Z,57.90
2022-08-30T13:10:51.555Z,58.50
2022-08-30T13:13:33.430Z,59.10
2022-08-30T13:16:13.972Z,57.70
2022-08-30T13:18:42.129Z,57.20
2022-08-30T13:21:22.663Z,57.70
2022-08-30T13:23:51.529Z,56.80
2022-08-30T13:26:20.494Z,57.80
2022-08-30T13:28:55.279Z,56.90
2022-08-30T13:31:23.561Z,57.40
2022-08-30T13:33:53.342Z,56.30
2022-08-30T13:36:28.621Z,56.40
2022-08-30T13:38:58.155Z,57.20
2022-08-30T13:41:26.691Z,58.70
2022-08-30T13:44:20.251Z,58.10
2022-08-30T13:46:54.650Z,56.60
2022-08-30T13:52:22.015Z,58.90
2022-08-30T13:54:51.520Z,58.80
2022-08-30T14:00:17.390Z,58.40
2022-08-30T14:02:51.649Z,58.50
2022-08-30T14:05:47.507Z,59.30
2022-08-30T14:11:03.281Z,57.40
2022-08-30T14:13:31.848Z,59.80
2022-08-30T14:18:51.382Z,60.10
2022-08-30T14:21:24.273Z,59.20
2022-08-30T14:23:56.008Z,60.10
2022-08-30T14:26:32.954Z,60.50
2022-08-30T14:29:02.356Z,60.90
2022-08-30T14:31:32.701Z,59.90
2022-08-30T14:34:03.411Z,61.10
2022-08-30T14:36:32.776Z,59.70
2022-08-30T14:39:03.308Z,61.60
2022-08-30T14:41:40.122Z,61.80
2022-08-30T14:44:11.612Z,61.30
2022-08-30T14:46:39.887Z,61.10
2022-08-30T14:49:10.330Z,61.70
2022-08-30T14:51:40.022Z,63.00
2022-08-30T14:54:10.391Z,61.10
2022-08-30T14:56:39.317Z,61.90
2022-08-30T14:59:08.289Z,62.00
2022-08-30T15:01:38.865Z,62.30
2022-08-30T15:04:08.667Z,64.00
2022-08-30T15:06:37.503Z,64.60
2022-08-30T15:09:06.260Z,65.00
2022-08-30T15:11:37.933Z,64.50
2022-08-30T15:14:07.513Z,64.40
2022-08-30T15:16:37.822Z,63.90
2022-08-30T15:19:08.495Z,64.40
2022-08-30T15:21:40.156Z,64.30
2022-08-30T15:24:11.732Z,65.90
2022-08-30T15:26:43.707Z,65.80
2022-08-30T15:29:14.015Z,66.70
2022-08-30T15:31:42.589Z,66.20
2022-08-30T15:34:12.416Z,66.80
2022-08-30T15:36:42.651Z,67.80
2022-08-30T15:39:11.841Z,67.60
2022-08-30T15:41:44.241Z,66.70
2022-08-30T15:44:13.764Z,67.40
2022-08-30T15:46:43.846Z,68.20
2022-08-30T15:49:15.568Z,69.30
2022-08-30T15:51:46.043Z,68.10
2022-08-30T15:54:16.777Z,67.20
2022-08-30T15:56:47.163Z,67.30
2022-08-30T15:59:18.506Z,67.10
2022-08-30T16:01:47.852Z,66.90
2022-08-30T16:04:18.557Z,67.90
2022-08-30T16:06:48.052Z,67.80
2022-08-30T16:09:16.280Z,69.50
2022-08-30T16:11:45.957Z,69.30
2022-08-30T16:14:14.953Z,69.70
2022-08-30T16:16:43.756Z,70.90
2022-08-30T16:19:12.058Z,70.10
2022-08-30T16:21:42.133Z,70.30
2022-08-30T16:24:13.602Z,68.00
2022-08-30T16:26:43.625Z,69.20
2022-08-30T16:29:15.976Z,68.40
2022-08-30T16:31:45.381Z,69.80
2022-08-30T16:34:20.105Z,69.40
2022-08-30T16:36:48.740Z,70.20
2022-08-30T16:39:17.668Z,70.40
2022-08-30T16:41:46.724Z,70.80
2022-08-30T16:44:18.646Z,71.40
2022-08-30T16:46:52.475Z,71.80
2022-08-30T16:49:22.557Z,72.20
2022-08-30T16:51:51.797Z,72.80
2022-08-30T16:54:21.633Z,71.90
2022-08-30T16:56:49.819Z,73.70
2022-08-30T16:59:19.675Z,73.20
2022-08-30T17:01:48.809Z,73.70
2022-08-30T17:04:19.543Z,73.40
2022-08-30T17:06:49.685Z,74.50
2022-08-30T17:09:18.649Z,74.50
2022-08-30T17:11:47.259Z,74.10
2022-08-30T17:14:17.840Z,74.90
2022-08-30T17:16:52.842Z,75.30
2022-08-30T17:19:27.105Z,76.00
2022-08-30T17:21:57.025Z,76.30
2022-08-30T17:24:26.756Z,76.20
2022-08-30T17:26:55.746Z,76.70
2022-08-30T17:29:23.959Z,77.20
2022-08-30T17:31:53.731Z,77.00
2022-08-30T17:34:22.383Z,77.90
2022-08-30T17:36:52.638Z,77.90
2022-08-30T17:39:22.170Z,78.30
2022-08-30T17:41:51.715Z,78.40
2022-08-30T17:44:25.645Z,78.90
2022-08-30T17:46:58.218Z,78.80
2022-08-30T17:49:28.946Z,79.50
2022-08-30T17:51:58.283Z,78.90
2022-08-30T17:54:27.064Z,79.30
2022-08-30T17:56:55.856Z,79.50
2022-08-30T17:59:25.794Z,79.60
2022-08-30T18:01:56.442Z,79.00
2022-08-30T18:04:26.121Z,80.20
2022-08-30T18:06:55.368Z,79.80
2022-08-30T18:09:24.177Z,79.70
2022-08-30T18:11:56.401Z,80.80
2022-08-30T18:14:25.361Z,80.70
2022-08-30T18:16:54.734Z,81.10
2022-08-30T18:19:25.945Z,81.50
2022-08-30T18:21:55.816Z,81.10
2022-08-30T18:24:25.683Z,81.90
2022-08-30T18:26:55.154Z,82.20
2022-08-30T18:29:28.888Z,82.30
2022-08-30T18:31:59.868Z,82.90
2022-08-30T18:34:29.835Z,83.60
2022-08-30T18:36:58.241Z,83.90
2022-08-30T18:39:26.681Z,84.40
2022-08-30T18:41:55.680Z,85.40
2022-08-30T18:44:28.727Z,85.90
2022-08-30T18:46:58.002Z,87.70
2022-08-30T18:49:32.360Z,87.70
2022-08-30T18:52:01.098Z,88.00
2022-08-30T18:54:30.296Z,88.40
2022-08-30T18:56:58.592Z,88.80
2022-08-30T18:59:35.693Z,88.70
2022-08-30T19:02:06.142Z,89.40
2022-08-30T19:04:36.399Z,89.30
2022-08-30T19:07:06.257Z,89.40
2022-08-30T19:09:35.002Z,89.60
2022-08-30T19:12:03.590Z,90.10
2022-08-30T19:14:36.117Z,90.00
2022-08-30T19:17:07.066Z,90.30
2022-08-30T19:19:48.607Z,90.50
2022-08-30T19:22:18.916Z,90.50
2022-08-30T19:24:49.679Z,90.40
2022-08-30T19:27:21.450Z,90.60
2022-08-30T19:30:06.218Z,90.70
2022-08-30T19:32:35.284Z,90.20
2022-08-30T19:35:05.375Z,90.70
2022-08-30T19:37:34.427Z,90.40
2022-08-30T19:40:03.899Z,90.70
2022-08-30T19:42:32.185Z,90.60
2022-08-30T19:45:00.556Z,90.70
2022-08-30T19:47:29.016Z,91.10
2022-08-30T19:49:57.657Z,91.30
2022-08-30T19:52:30.639Z,91.20
2022-08-30T19:55:00.254Z,91.50
2022-08-30T19:57:28.952Z,91.90
2022-08-30T19:59:59.688Z,91.90
2022-08-30T20:02:28.494Z,92.10
2022-08-30T20:04:58.151Z,92.50
2022-08-30T20:07:31.149Z,92.30
2022-08-30T20:10:03.308Z,92.40
2022-08-30T20:12:31.719Z,93.40
2022-08-30T20:14:59.940Z,93.50
2022-08-30T20:17:37.973Z,93.90
2022-08-30T20:20:20.803Z,94.30
2022-08-30T20:22:54.157Z,94.60
2022-08-30T20:25:22.742Z,94.50
2022-08-30T20:27:51.210Z,94.30
2022-08-30T20:30:20.016Z,94.90
2022-08-30T20:32:48.503Z,94.50
2022-08-30T20:35:18.141Z,94.40
2022-08-30T20:37:47.269Z,94.70
2022-08-30T20:40:17.032Z,95.30
2022-08-30T20:42:46.469Z,95.10
2022-08-30T20:45:17.108Z,95.40
2022-08-30T20:47:45.913Z,95.90
2022-08-30T20:50:16.329Z,96.10
2022-08-30T20:52:44.713Z,96.50
2022-08-30T20:55:14.697Z,97.40
2022-08-30T20:57:44.473Z,98.20
2022-08-30T21:00:14.742Z,98.50
2022-08-30T21:02:46.496Z,98.50
2022-08-30T21:05:17.356Z,98.80
2022-08-30T21:07:46.845Z,99.30
2022-08-30T21:10:21.161Z,99.90
2022-08-30T21:12:53.347Z,99.90
2022-08-30T21:15:37.349Z,99.90
2022-08-30T21:18:06.326Z,99.90
2022-08-30T21:20:34.569Z,99.90
2022-08-30T21:23:03.022Z,99.90
2022-08-30T21:25:34.267Z,99.90
2022-08-30T21:28:04.405Z,99.90
2022-08-30T21:30:32.625Z,99.90
2022-08-30T21:33:00.939Z,99.90
2022-08-30T21:35:46.780Z,99.90
2022-08-30T21:38:15.267Z,99.90
2022-08-30T21:40:43.881Z,99.90
2022-08-30T21:43:13.900Z,99.90
2022-08-30T21:45:42.694Z,99.90
2022-08-30T21:48:11.838Z,99.90
2022-08-30T21:50:41.079Z,99.90
2022-08-30T21:53:09.531Z,99.90
2022-08-30T21:55:37.798Z,99.90
2022-08-30T21:58:06.187Z,99.90
2022-08-30T22:00:35.988Z,99.90
2022-08-30T22:03:04.256Z,99.90
2022-08-30T22:05:32.557Z,99.90
2022-08-30T22:08:00.891Z,99.90
2022-08-30T22:10:33.002Z,99.90
2022-08-30T22:13:01.918Z,99.90
2022-08-30T22:15:32.257Z,99.90
2022-08-30T22:18:02.053Z,99.90
2022-08-30T22:20:30.743Z,99.90
2022-08-30T22:22:59.288Z,99.90
2022-08-30T22:25:27.816Z,99.90
2022-08-30T22:27:55.983Z,99.90
2022-08-30T22:30:24.304Z,99.90
2022-08-30T22:32:52.698Z,99.90
2022-08-30T22:35:23.102Z,99.90
2022-08-30T22:37:53.157Z,99.90
2022-08-30T22:40:22.418Z,99.90
2022-08-30T22:42:50.683Z,99.90
2022-08-30T22:45:19.179Z,99.90
2022-08-30T22:47:48.030Z,99.90
2022-08-30T22:50:16.263Z,99.90
2022-08-30T22:52:46.468Z,99.90
2022-08-30T22:55:14.737Z,99.90
2022-08-30T22:57:43.492Z,99.90
2022-08-30T23:00:15.557Z,99.90
2022-08-30T23:02:44.627Z,99.90
2022-08-30T23:05:13.885Z,99.90
2022-08-30T23:07:42.520Z,99.90
2022-08-30T23:10:13.562Z,99.90
2022-08-30T23:12:43.129Z,99.90
2022-08-30T23:15:14.549Z,99.90
2022-08-30T23:17:42.799Z,99.90
2022-08-30T23:20:12.022Z,99.90
2022-08-30T23:22:40.223Z,99.90
2022-08-30T23:25:26.549Z,99.90
2022-08-30T23:28:17.478Z,99.90
2022-08-30T23:31:06.722Z,99.90
2022-08-30T23:33:52.389Z,99.90
2022-08-30T23:36:38.353Z,99.90
2022-08-30T23:39:23.674Z,99.90
2022-08-30T23:42:09.004Z,99.90
2022-08-30T23:44:56.125Z,99.90
2022-08-30T23:47:41.817Z,99.90
2022-08-30T23:50:27.707Z,99.90
2022-08-30T23:53:13.527Z,99.90
2022-08-30T23:55:59.505Z,99.90
2022-08-30T23:58:45.401Z,99.90
